ADDS METAR Data

Data at: 2308 UTC 15 Aug 2018

METAR for:KORD (Chicago/O'Hare Intl, IL, US)
Text:KORD 152251Z VRB05KT 10SM FEW035 SCT065 SCT100 BKN200 OVC250 28/19 A2989 RMK AO2 LTG DSNT NW SLP115 TCU DSNT SW T02830194
Temperature: 28.3°C ( 83°F)
Dewpoint: 19.4°C ( 67°F) [RH = 59%]
Pressure (altimeter):29.89 inches Hg (1012.3 mb) [Sea level pressure: 1011.5 mb]
Winds:variable direction winds at 6 MPH (5 knots; 2.6 m/s)
Visibility:10 or more sm (16+ km)
Ceiling:20000 feet AGL
Clouds: few clouds at 3500 feet AGL, scattered clouds at 6500 feet AGL, scattered clouds at 10000 feet AGL, broken clouds at 20000 feet AGL